Time;durP1;ratioP1;P1;durP2;ratioP2;P2;SDS_P1;SDS_P2;PMS_P1;PMS_P2;Temp;Humidity;BMP_temperature;BMP_pressure;BME280_temperature;BME280_humidity;BME280_pressure;Samples;Min_cycle;Max_cycle;Signal;HPM_P1;HPM_P2
2022/07/02 00:02:42;;;;;;;7.00;4.20;;;;;;;9.29;100.00;94634.75;5039426;28;20210;-60
2022/07/02 00:05:30;;;;;;;12.43;4.13;;;;;;;9.32;100.00;94628.00;5046806;28;20773;-60
2022/07/02 00:08:17;;;;;;;8.03;4.20;;;;;;;9.26;100.00;94623.94;5051944;28;20256;-60
2022/07/02 00:11:04;;;;;;;6.77;4.00;;;;;;;9.24;100.00;94638.50;5042210;28;20199;-60
2022/07/02 00:13:50;;;;;;;8.40;3.90;;;;;;;9.26;100.00;94633.06;5047334;28;20256;-60
2022/07/02 00:16:35;;;;;;;10.90;3.90;;;;;;;9.37;100.00;94633.97;5047448;28;20255;-60
2022/07/02 00:19:21;;;;;;;7.23;3.33;;;;;;;9.15;100.00;94619.53;5051144;28;20193;-60
2022/07/02 00:22:05;;;;;;;5.30;3.90;;;;;;;9.30;100.00;94627.84;5048901;28;20274;-60
2022/07/02 00:24:49;;;;;;;6.60;3.93;;;;;;;9.27;100.00;94625.44;5052075;28;20287;-60
2022/07/02 00:27:33;;;;;;;6.57;3.57;;;;;;;9.07;100.00;94632.81;5045554;28;20259;-60
2022/07/02 00:30:18;;;;;;;6.73;3.17;;;;;;;9.04;100.00;94619.94;5043126;28;20347;-60
2022/07/02 00:33:02;;;;;;;6.17;3.50;;;;;;;9.02;100.00;94627.41;5050836;28;20707;-61
2022/07/02 00:35:46;;;;;;;8.20;4.03;;;;;;;8.88;100.00;94635.28;5046761;28;20426;-60
2022/07/02 00:38:30;;;;;;;6.03;3.73;;;;;;;8.77;100.00;94630.09;5041932;28;20415;-60
2022/07/02 00:41:16;;;;;;;5.53;3.93;;;;;;;8.92;100.00;94630.06;5044648;28;21388;-60
2022/07/02 00:44:00;;;;;;;6.70;3.90;;;;;;;8.97;100.00;94626.31;5044695;28;20198;-60
2022/07/02 00:46:46;;;;;;;11.70;4.23;;;;;;;8.96;100.00;94626.88;5050252;28;20594;-61
2022/07/02 00:49:32;;;;;;;11.77;4.80;;;;;;;9.09;100.00;94616.19;5048520;28;20280;-61
2022/07/02 00:52:16;;;;;;;7.57;5.27;;;;;;;9.26;100.00;94618.34;5050325;28;20197;-61
2022/07/02 00:55:01;;;;;;;14.43;5.93;;;;;;;9.13;100.00;94616.56;5049431;28;20200;-60
2022/07/02 00:57:46;;;;;;;11.40;5.30;;;;;;;9.09;100.00;94615.44;5050281;28;20283;-61
2022/07/02 01:00:30;;;;;;;8.27;6.27;;;;;;;8.90;100.00;94615.91;5041895;28;20197;-60
2022/07/02 01:03:17;;;;;;;6.33;4.63;;;;;;;8.78;100.00;94614.81;5042058;28;20229;-60
2022/07/02 01:06:02;;;;;;;7.63;4.67;;;;;;;8.85;100.00;94625.22;5049763;28;20305;-60
2022/07/02 01:11:52;;;;;;;8.20;4.43;;;;;;;8.80;100.00;94615.00;5037665;28;20666;-60
2022/07/02 01:14:38;;;;;;;4.80;3.27;;;;;;;8.59;100.00;94614.50;5050085;28;20288;-60
2022/07/02 01:17:23;;;;;;;5.70;3.27;;;;;;;8.51;100.00;94615.28;5044593;28;20813;-61
2022/07/02 01:20:09;;;;;;;9.30;5.17;;;;;;;8.83;100.00;94619.47;5047426;28;20632;-60
2022/07/02 01:22:53;;;;;;;7.87;3.77;;;;;;;8.87;100.00;94612.19;5049904;28;20243;-60
2022/07/02 01:25:37;;;;;;;4.83;2.87;;;;;;;8.77;100.00;94605.69;5053738;28;20217;-60
2022/07/02 01:28:22;;;;;;;10.87;4.10;;;;;;;8.91;100.00;94611.78;5043732;28;20247;-60
2022/07/02 01:31:06;;;;;;;9.43;4.77;;;;;;;8.64;100.00;94605.19;5048499;28;20725;-61
2022/07/02 01:33:50;;;;;;;10.33;3.93;;;;;;;8.52;100.00;94602.78;5049764;28;20278;-60
2022/07/02 01:36:35;;;;;;;8.43;3.50;;;;;;;8.71;100.00;94593.22;5050885;28;20209;-60
2022/07/02 01:39:23;;;;;;;5.97;3.83;;;;;;;8.58;100.00;94596.28;5047711;28;20289;-61
2022/07/02 01:42:09;;;;;;;6.53;3.63;;;;;;;8.39;100.00;94591.81;5051564;28;20262;-60
2022/07/02 01:44:53;;;;;;;6.10;3.50;;;;;;;8.37;100.00;94594.47;5053973;28;20702;-60
2022/07/02 01:47:37;;;;;;;6.47;3.30;;;;;;;8.20;100.00;94591.47;5048598;28;20209;-60
2022/07/02 01:50:21;;;;;;;4.93;2.77;;;;;;;8.06;100.00;94588.16;5046202;28;20201;-60
2022/07/02 01:53:05;;;;;;;7.23;3.00;;;;;;;8.10;100.00;94593.34;5047154;28;20222;-60
2022/07/02 01:55:48;;;;;;;4.70;2.93;;;;;;;8.14;100.00;94602.09;5053494;28;20232;-60
2022/07/02 01:58:32;;;;;;;3.73;2.60;;;;;;;8.01;100.00;94591.13;5048408;28;20196;-61
2022/07/02 02:01:16;;;;;;;8.60;3.70;;;;;;;8.16;100.00;94596.69;5052009;28;20197;-60
2022/07/02 02:04:02;;;;;;;6.23;3.03;;;;;;;7.96;100.00;94594.84;5053548;28;20308;-61
2022/07/02 02:06:46;;;;;;;8.47;2.50;;;;;;;7.91;100.00;94592.97;5052519;28;20288;-61
2022/07/02 02:09:31;;;;;;;3.40;2.60;;;;;;;7.84;100.00;94602.13;5051452;28;20241;-60
2022/07/02 02:12:15;;;;;;;6.00;3.13;;;;;;;7.79;100.00;94600.22;5052514;28;20217;-60
2022/07/02 02:14:59;;;;;;;4.00;2.93;;;;;;;7.79;100.00;94603.03;5050693;28;20205;-60
2022/07/02 02:17:43;;;;;;;7.47;2.70;;;;;;;7.75;100.00;94600.63;5053795;28;20259;-60
2022/07/02 02:20:27;;;;;;;4.37;3.10;;;;;;;7.81;100.00;94608.78;5051939;28;20193;-61
2022/07/02 02:23:11;;;;;;;3.47;2.63;;;;;;;7.82;100.00;94607.50;5044963;28;20702;-60
2022/07/02 02:25:55;;;;;;;10.27;3.90;;;;;;;7.98;100.00;94603.41;5052505;28;20221;-60
2022/07/02 02:28:39;;;;;;;66.00;6.70;;;;;;;8.13;100.00;94611.78;5052166;28;20309;-60
2022/07/02 02:31:23;;;;;;;84.93;6.93;;;;;;;8.25;100.00;94606.53;5047579;28;20256;-62
2022/07/02 02:34:08;;;;;;;70.27;6.47;;;;;;;8.38;100.00;94606.38;5053286;28;20247;-61
2022/07/02 02:36:52;;;;;;;40.53;5.87;;;;;;;8.50;100.00;94608.22;5054926;28;20225;-61
2022/07/02 02:39:36;;;;;;;33.67;4.93;;;;;;;8.56;100.00;94615.63;5048252;28;20225;-61
2022/07/02 02:42:20;;;;;;;25.03;5.43;;;;;;;8.73;100.00;94607.38;5048003;28;20248;-60
2022/07/02 02:45:04;;;;;;;17.97;4.90;;;;;;;9.02;100.00;94600.19;5053251;28;20276;-61
2022/07/02 02:47:48;;;;;;;51.00;6.67;;;;;;;8.90;100.00;94599.13;5056045;28;20202;-61
2022/07/02 02:50:32;;;;;;;119.13;8.63;;;;;;;8.88;100.00;94607.34;5052161;28;20510;-63
2022/07/02 02:53:16;;;;;;;77.27;8.40;;;;;;;8.85;100.00;94605.66;5048733;28;20750;-65
2022/07/02 02:56:01;;;;;;;341.27;18.60;;;;;;;8.85;100.00;94605.66;5049653;28;20240;-66
2022/07/02 02:58:45;;;;;;;124.33;11.27;;;;;;;8.71;100.00;94604.41;5053116;28;20816;-66
2022/07/02 03:01:28;;;;;;;234.53;15.13;;;;;;;8.57;100.00;94601.13;5051296;28;20194;-66
2022/07/02 03:04:12;;;;;;;201.83;12.53;;;;;;;8.59;100.00;94598.50;5051057;28;20229;-67
2022/07/02 03:06:56;;;;;;;177.00;12.07;;;;;;;8.81;100.00;94596.94;5049322;28;20725;-67
2022/07/02 03:09:41;;;;;;;565.93;27.60;;;;;;;8.47;100.00;94609.31;5046913;28;20202;-68
2022/07/02 03:12:26;;;;;;;621.63;28.73;;;;;;;8.38;100.00;94607.13;5043641;28;20613;-69
2022/07/02 03:15:10;;;;;;;71.07;7.57;;;;;;;8.70;100.00;94609.25;5051788;28;20205;-68
2022/07/02 03:17:54;;;;;;;20.87;5.00;;;;;;;8.63;100.00;94612.09;5052687;28;20252;-67
2022/07/02 03:20:39;;;;;;;24.80;5.80;;;;;;;8.56;100.00;94605.22;5050013;28;20317;-64
2022/07/02 03:23:23;;;;;;;55.20;7.67;;;;;;;8.43;100.00;94608.22;5052019;28;20251;-65
2022/07/02 03:26:06;;;;;;;33.43;5.97;;;;;;;8.42;100.00;94618.63;5056839;28;20232;-64
2022/07/02 03:28:50;;;;;;;34.43;6.30;;;;;;;8.55;100.00;94619.72;5051882;28;20255;-64
2022/07/02 03:31:34;;;;;;;15.63;4.43;;;;;;;8.48;100.00;94616.41;5045738;28;20546;-64
2022/07/02 03:34:18;;;;;;;5.17;3.17;;;;;;;8.48;100.00;94621.97;5051443;28;20610;-65
2022/07/02 03:37:03;;;;;;;8.30;3.40;;;;;;;8.49;100.00;94629.06;5051542;28;20568;-65
2022/07/02 03:39:47;;;;;;;11.37;4.10;;;;;;;8.36;100.00;94623.69;5049944;28;20201;-65
2022/07/02 03:42:31;;;;;;;9.50;3.30;;;;;;;8.32;100.00;94620.53;5046794;28;20194;-65
2022/07/02 03:45:15;;;;;;;9.57;4.27;;;;;;;8.17;100.00;94626.09;5050736;28;20283;-66
2022/07/02 03:47:59;;;;;;;12.83;5.07;;;;;;;8.11;100.00;94622.75;5051454;28;20628;-68
2022/07/02 03:50:44;;;;;;;11.83;4.87;;;;;;;8.17;100.00;94631.66;5045777;28;20859;-68
2022/07/02 03:53:28;;;;;;;13.10;6.40;;;;;;;8.17;100.00;94630.94;5051329;28;20280;-68
2022/07/02 03:56:12;;;;;;;19.70;6.87;;;;;;;8.10;100.00;94638.00;5050371;28;20198;-68
2022/07/02 03:58:56;;;;;;;11.00;4.57;;;;;;;8.17;100.00;94637.25;5044445;28;20260;-67
2022/07/02 04:01:39;;;;;;;15.00;5.57;;;;;;;8.14;100.00;94627.22;5045216;28;20342;-68
2022/07/02 04:04:23;;;;;;;21.60;5.90;;;;;;;8.26;100.00;94633.91;5050167;28;20217;-68
2022/07/02 04:07:07;;;;;;;20.00;6.43;;;;;;;8.32;100.00;94637.28;5044915;28;20293;-69
2022/07/02 04:09:51;;;;;;;11.10;4.30;;;;;;;8.48;100.00;94627.56;5049345;28;20200;-67
2022/07/02 04:12:35;;;;;;;11.00;5.27;;;;;;;8.82;100.00;94632.72;5048955;28;20577;-67
2022/07/02 04:15:20;;;;;;;9.47;4.87;;;;;;;8.88;100.00;94630.44;5048842;28;20193;-67
2022/07/02 04:18:04;;;;;;;12.90;4.63;;;;;;;8.91;100.00;94632.09;5050957;28;20248;-68
2022/07/02 04:20:48;;;;;;;10.93;4.80;;;;;;;9.02;100.00;94630.94;5044552;28;20221;-68
2022/07/02 04:23:32;;;;;;;10.30;4.30;;;;;;;8.95;100.00;94637.28;5049611;28;20712;-69
2022/07/02 04:26:16;;;;;;;10.07;5.30;;;;;;;9.16;100.00;94632.19;5050081;28;20276;-68
2022/07/02 04:29:00;;;;;;;4.87;4.00;;;;;;;9.54;100.00;94632.00;5043619;28;20198;-66
2022/07/02 04:31:43;;;;;;;5.77;3.37;;;;;;;9.86;100.00;94634.03;5049411;28;20281;-66
2022/07/02 04:34:27;;;;;;;7.20;4.40;;;;;;;10.13;100.00;94623.75;5050964;28;20198;-66
2022/07/02 04:37:12;;;;;;;7.77;4.47;;;;;;;10.61;100.00;94620.72;5050542;28;20743;-67
2022/07/02 04:39:56;;;;;;;3.97;3.53;;;;;;;10.66;100.00;94624.59;5047086;28;20581;-67
2022/07/02 04:42:41;;;;;;;4.43;3.00;;;;;;;11.02;100.00;94630.38;5049315;28;20244;-67
2022/07/02 04:45:24;;;;;;;7.87;3.93;;;;;;;11.25;100.00;94630.84;5048278;28;20701;-67
2022/07/02 04:48:08;;;;;;;4.93;3.60;;;;;;;11.48;100.00;94630.53;5050900;28;20220;-67
2022/07/02 04:50:52;;;;;;;3.03;2.63;;;;;;;11.63;100.00;94627.53;5050388;28;20604;-70
2022/07/02 04:53:37;;;;;;;2.93;2.73;;;;;;;11.81;100.00;94627.50;5044760;28;20205;-69
2022/07/02 04:56:21;;;;;;;5.10;3.07;;;;;;;12.05;100.00;94621.69;5049086;28;20635;-69
2022/07/02 04:59:04;;;;;;;3.83;2.47;;;;;;;11.98;100.00;94624.63;5049253;28;20216;-69
2022/07/02 05:01:49;;;;;;;4.03;3.20;;;;;;;12.09;100.00;94621.28;5040776;28;20276;-69
2022/07/02 05:04:33;;;;;;;4.93;2.90;;;;;;;12.10;100.00;94625.53;5048653;28;20322;-70
2022/07/02 05:07:17;;;;;;;4.30;3.40;;;;;;;12.32;100.00;94624.44;5050498;28;20198;-70
2022/07/02 05:10:01;;;;;;;4.80;3.07;;;;;;;12.19;100.00;94627.66;5048881;28;20252;-70
2022/07/02 05:12:45;;;;;;;3.20;2.90;;;;;;;12.41;100.00;94623.72;5047653;28;20915;-70
2022/07/02 05:15:30;;;;;;;2.90;2.30;;;;;;;12.48;100.00;94622.13;5046798;28;20758;-69
2022/07/02 05:18:15;;;;;;;3.87;3.50;;;;;;;12.79;100.00;94620.25;5046424;28;20245;-70
2022/07/02 05:20:59;;;;;;;3.47;3.17;;;;;;;12.88;100.00;94610.34;5048044;28;20272;-70
2022/07/02 05:23:43;;;;;;;5.37;4.13;;;;;;;13.00;100.00;94616.88;5054031;28;20255;-70
2022/07/02 05:26:28;;;;;;;3.47;2.90;;;;;;;13.04;100.00;94617.16;5043985;28;20587;-70
2022/07/02 05:29:12;;;;;;;2.40;2.20;;;;;;;12.89;100.00;94617.47;5049176;28;20213;-69
2022/07/02 05:31:56;;;;;;;2.40;2.03;;;;;;;12.84;100.00;94624.09;5048408;28;20582;-70
2022/07/02 05:34:40;;;;;;;3.33;2.43;;;;;;;12.98;100.00;94623.06;5047634;28;20593;-67
2022/07/02 05:37:24;;;;;;;2.33;2.00;;;;;;;12.95;100.00;94626.34;5040828;28;20629;-66
2022/07/02 05:40:09;;;;;;;3.90;2.77;;;;;;;13.22;100.00;94621.31;5048308;28;20693;-68
2022/07/02 05:42:53;;;;;;;4.27;3.37;;;;;;;13.50;100.00;94630.34;5045671;28;20328;-67
2022/07/02 05:45:37;;;;;;;4.23;3.20;;;;;;;13.71;100.00;94636.06;5049617;28;20233;-69
2022/07/02 05:48:21;;;;;;;3.27;3.07;;;;;;;13.70;100.00;94640.25;5049968;28;20256;-69
2022/07/02 05:51:05;;;;;;;2.50;2.30;;;;;;;13.63;100.00;94646.78;5045933;28;20236;-68
2022/07/02 05:53:49;;;;;;;2.40;2.20;;;;;;;13.77;100.00;94645.69;5049278;28;20248;-68
2022/07/02 05:56:34;;;;;;;5.63;2.97;;;;;;;13.86;100.00;94638.56;5043255;28;20729;-67
2022/07/02 05:59:18;;;;;;;14.90;4.40;;;;;;;13.97;100.00;94646.38;5049382;28;20197;-66
2022/07/02 06:02:06;;;;;;;12.33;3.40;;;;;;;14.10;100.00;94637.44;5047263;28;20686;-66
2022/07/02 06:04:50;;;;;;;5.00;2.83;;;;;;;14.09;100.00;94638.78;5040168;28;20273;-66
2022/07/02 06:07:40;;;;;;;6.40;3.07;;;;;;;14.27;100.00;94639.28;5047953;28;20626;-66
2022/07/02 06:10:25;;;;;;;6.03;2.80;;;;;;;14.22;100.00;94634.72;5048591;28;20256;-66
2022/07/02 06:13:09;;;;;;;9.47;2.50;;;;;;;14.30;100.00;94637.38;5042690;28;20794;-66
2022/07/02 06:15:53;;;;;;;12.03;2.80;;;;;;;14.30;100.00;94638.09;5044887;28;20643;-66
2022/07/02 06:18:37;;;;;;;4.10;1.90;;;;;;;14.25;100.00;94638.44;5047143;28;20279;-65
2022/07/02 06:21:20;;;;;;;6.83;2.30;;;;;;;14.44;100.00;94636.28;5042596;28;20194;-65
2022/07/02 06:24:05;;;;;;;7.23;2.20;;;;;;;14.45;100.00;94631.38;5049982;28;20205;-65
2022/07/02 06:26:49;;;;;;;1.40;1.30;;;;;;;14.33;100.00;94630.50;5047024;28;20621;-65
2022/07/02 06:29:33;;;;;;;1.53;1.43;;;;;;;14.70;100.00;94628.84;5038023;28;20249;-65
2022/07/02 06:32:17;;;;;;;1.60;1.50;;;;;;;14.75;100.00;94636.25;5046357;28;21456;-65
2022/07/02 06:35:01;;;;;;;1.43;1.30;;;;;;;14.71;100.00;94635.97;5048608;28;20674;-65
2022/07/02 06:37:46;;;;;;;1.30;1.20;;;;;;;14.76;100.00;94625.69;5052643;28;20316;-65
2022/07/02 06:40:30;;;;;;;1.43;1.30;;;;;;;14.91;100.00;94631.69;5044854;28;20221;-65
2022/07/02 06:43:14;;;;;;;5.93;2.57;;;;;;;15.20;100.00;94622.28;5048091;28;20287;-66
2022/07/02 06:45:58;;;;;;;7.43;2.17;;;;;;;15.20;100.00;94633.56;5046820;28;20230;-65
2022/07/02 06:48:42;;;;;;;2.67;2.03;;;;;;;15.16;100.00;94634.03;5038135;28;20264;-65
2022/07/02 06:51:26;;;;;;;4.53;2.17;;;;;;;15.28;100.00;94628.44;5045165;28;20264;-65
2022/07/02 06:54:10;;;;;;;3.10;1.10;;;;;;;15.11;100.00;94631.56;5042196;28;20206;-65
2022/07/02 06:56:54;;;;;;;1.30;1.10;;;;;;;15.39;100.00;94633.41;5045824;28;20316;-65
2022/07/02 06:59:38;;;;;;;3.50;1.50;;;;;;;15.86;100.00;94633.59;5047071;28;20221;-65
2022/07/02 07:02:22;;;;;;;5.33;1.67;;;;;;;15.63;100.00;94631.44;5044801;28;20220;-65
2022/07/02 07:05:07;;;;;;;0.87;0.73;;;;;;;15.75;100.00;94635.03;5049217;28;20260;-65
2022/07/02 07:07:51;;;;;;;6.03;0.90;;;;;;;16.03;100.00;94642.47;5051734;28;20205;-65
2022/07/02 07:10:35;;;;;;;1.50;0.77;;;;;;;16.30;100.00;94646.91;5050657;28;20225;-65
2022/07/02 07:13:19;;;;;;;3.93;1.30;;;;;;;16.21;100.00;94634.38;5040466;28;20198;-65
2022/07/02 07:16:03;;;;;;;2.77;1.10;;;;;;;16.17;100.00;94639.78;5046488;28;20208;-65
2022/07/02 07:19:08;;;;;;;3.03;1.30;;;;;;;16.29;100.00;94640.56;5052549;28;20706;-65
2022/07/02 07:21:51;;;;;;;2.33;0.80;;;;;;;16.69;100.00;94635.88;5043401;28;20264;-64
2022/07/02 07:24:36;;;;;;;1.00;0.68;;;;;;;16.39;100.00;94637.59;5046142;28;20219;-64
2022/07/02 07:27:20;;;;;;;1.52;0.60;;;;;;;16.72;100.00;94637.50;5051336;28;20200;-63
2022/07/02 07:30:05;;;;;;;3.28;0.90;;;;;;;16.61;100.00;94638.22;5050448;28;20208;-63
2022/07/02 07:32:49;;;;;;;4.50;1.10;;;;;;;17.10;100.00;94639.75;5045999;28;20285;-63
2022/07/02 07:35:33;;;;;;;3.30;1.17;;;;;;;16.73;100.00;94641.78;5024808;28;20699;-63
2022/07/02 07:38:17;;;;;;;4.53;1.10;;;;;;;17.57;100.00;94633.94;5048685;28;20700;-63
2022/07/02 07:41:01;;;;;;;4.75;1.70;;;;;;;17.65;100.00;94628.78;5048579;28;20540;-63
2022/07/02 07:43:45;;;;;;;3.88;0.88;;;;;;;17.91;100.00;94624.53;5045271;28;20268;-62
2022/07/02 07:46:29;;;;;;;2.55;1.08;;;;;;;18.75;85.37;94626.94;5046298;28;20229;-62
2022/07/02 07:49:15;;;;;;;1.42;0.90;;;;;;;18.73;76.16;94627.56;5050503;28;20212;-63
2022/07/02 07:51:59;;;;;;;3.30;0.77;;;;;;;18.74;72.85;94629.03;5048667;28;20656;-63
2022/07/02 07:54:43;;;;;;;4.07;1.23;;;;;;;19.75;69.80;94627.72;5051165;28;20273;-62
2022/07/02 07:57:27;;;;;;;0.50;0.40;;;;;;;19.78;68.60;94630.03;5043182;28;20241;-62
2022/07/02 08:00:11;;;;;;;2.10;0.77;;;;;;;19.61;71.47;94630.63;5047669;28;20267;-62
2022/07/02 08:02:59;;;;;;;2.90;0.68;;;;;;;19.69;69.83;94625.31;5048556;28;20216;-62
2022/07/02 08:05:46;;;;;;;0.70;0.45;;;;;;;20.40;69.07;94631.53;5046499;28;20225;-62
2022/07/02 08:08:30;;;;;;;1.02;0.88;;;;;;;20.79;71.51;94633.28;5051188;28;20201;-63
2022/07/02 08:11:14;;;;;;;1.60;0.47;;;;;;;20.01;71.30;94631.09;5049720;28;20205;-62
2022/07/02 08:13:58;;;;;;;0.88;0.40;;;;;;;20.00;68.18;94623.91;5048515;28;20209;-63
2022/07/02 08:16:43;;;;;;;0.40;0.40;;;;;;;20.58;68.88;94631.63;5047723;28;20206;-62
2022/07/02 08:19:27;;;;;;;0.80;0.60;;;;;;;21.59;65.75;94632.47;5047027;28;20345;-63
2022/07/02 08:22:11;;;;;;;2.75;0.70;;;;;;;21.68;64.92;94625.72;5047154;28;20666;-63
2022/07/02 08:24:55;;;;;;;2.70;1.00;;;;;;;21.17;65.68;94626.44;5047867;28;20198;-63
2022/07/02 08:27:39;;;;;;;4.93;1.08;;;;;;;21.67;67.03;94627.09;5038246;28;20214;-63
2022/07/02 08:30:23;;;;;;;0.30;0.30;;;;;;;21.15;67.16;94617.81;5042301;28;20201;-63
2022/07/02 08:33:07;;;;;;;2.95;0.60;;;;;;;22.10;63.96;94618.13;5045120;28;20262;-63
2022/07/02 08:35:51;;;;;;;3.05;0.50;;;;;;;21.75;65.92;94627.44;5037677;28;20782;-63
2022/07/02 08:38:35;;;;;;;0.30;0.20;;;;;;;21.82;62.64;94625.56;5045868;28;20619;-63
2022/07/02 08:41:19;;;;;;;4.38;0.80;;;;;;;21.64;64.03;94617.00;5047037;28;20276;-63
2022/07/02 08:44:06;;;;;;;0.50;0.40;;;;;;;21.32;64.53;94617.13;5047097;28;20281;-63
2022/07/02 08:46:51;;;;;;;2.80;0.35;;;;;;;21.31;64.96;94623.44;5038443;28;20316;-63
2022/07/02 08:49:39;;;;;;;1.17;0.55;;;;;;;21.90;63.21;94620.91;5045643;28;20459;-64
2022/07/02 08:52:24;;;;;;;3.25;0.40;;;;;;;21.73;64.31;94618.78;5044089;28;20194;-64
2022/07/02 08:55:08;;;;;;;0.22;0.22;;;;;;;21.73;61.90;94615.94;5043561;28;20277;-64
2022/07/02 08:57:53;;;;;;;0.30;0.28;;;;;;;22.54;60.27;94604.84;5046946;28;20628;-64
2022/07/02 09:00:37;;;;;;;0.30;0.30;;;;;;;22.22;59.73;94603.63;5036397;28;20241;-64
2022/07/02 09:03:22;;;;;;;0.28;0.28;;;;;;;22.03;58.73;94605.78;5046609;28;20221;-64
2022/07/02 09:06:08;;;;;;;0.40;0.40;;;;;;;23.03;59.00;94601.66;5048631;28;20273;-64
2022/07/02 09:08:52;;;;;;;1.40;0.40;;;;;;;23.82;55.77;94598.66;5046262;28;20220;-64
2022/07/02 09:11:36;;;;;;;1.42;0.40;;;;;;;23.28;52.92;94592.53;5041676;28;20208;-64
2022/07/02 09:14:21;;;;;;;0.50;0.43;;;;;;;23.47;53.27;94604.63;5050567;28;20243;-64
2022/07/02 09:17:09;;;;;;;0.90;0.40;;;;;;;23.54;53.60;94601.31;5043683;28;20198;-64
2022/07/02 09:19:53;;;;;;;2.15;0.47;;;;;;;22.21;54.42;94590.75;5040028;28;20294;-64
2022/07/02 09:22:49;;;;;;;1.15;1.05;;;;;;;22.58;51.94;94599.28;5042071;28;20652;-64
2022/07/02 09:25:33;;;;;;;1.70;0.90;;;;;;;23.68;52.20;94592.47;5052197;28;20706;-65
2022/07/02 09:28:18;;;;;;;1.98;0.30;;;;;;;24.51;47.86;94598.69;5040072;28;20210;-67
2022/07/02 09:31:03;;;;;;;1.20;0.40;;;;;;;24.46;50.93;94588.50;5045971;28;20577;-65
2022/07/02 09:33:47;;;;;;;0.20;0.20;;;;;;;25.06;46.41;94591.66;5043416;28;20244;-65
2022/07/02 09:36:35;;;;;;;6.80;0.68;;;;;;;24.87;47.91;94587.53;5049754;28;20351;-66
2022/07/02 09:39:31;;;;;;;4.70;0.40;;;;;;;25.27;46.64;94585.09;5050170;28;20194;-66
2022/07/02 09:42:29;;;;;;;0.75;0.20;;;;;;;26.21;44.47;94590.28;5045269;28;20920;-66
2022/07/02 09:45:15;;;;;;;1.38;0.45;;;;;;;25.50;43.42;94586.38;5047096;28;20253;-66
2022/07/02 09:48:02;;;;;;;3.00;0.40;;;;;;;25.74;43.63;94583.44;5047752;28;20201;-66
2022/07/02 09:50:46;;;;;;;2.10;0.40;;;;;;;26.19;42.47;94583.09;5049600;28;20210;-65
2022/07/02 09:53:30;;;;;;;0.30;0.30;;;;;;;26.13;42.62;94579.34;5044886;28;20679;-66
2022/07/02 09:56:15;;;;;;;2.65;0.20;;;;;;;25.63;43.92;94573.09;5046162;28;20198;-65
2022/07/02 09:58:59;;;;;;;0.22;0.20;;;;;;;26.37;42.34;94571.31;5043975;28;20269;-65
2022/07/02 10:01:44;;;;;;;0.20;0.20;;;;;;;26.28;42.27;94581.16;5048090;28;20206;-65
2022/07/02 10:04:30;;;;;;;1.85;0.25;;;;;;;27.08;40.76;94575.69;5051268;28;20236;-65
2022/07/02 10:07:14;;;;;;;0.40;0.30;;;;;;;27.94;40.97;94578.69;5046802;28;20225;-63
2022/07/02 10:10:04;;;;;;;0.50;0.40;;;;;;;26.18;41.78;94581.63;5050414;28;20268;-64
2022/07/02 10:12:49;;;;;;;1.02;0.22;;;;;;;26.97;39.95;94576.91;5047797;28;20248;-63
2022/07/02 10:15:36;;;;;;;0.13;0.13;;;;;;;27.78;38.36;94573.38;5047028;28;22002;-64
2022/07/02 10:18:24;;;;;;;0.43;0.20;;;;;;;28.55;38.48;94586.13;5053461;28;20248;-64
2022/07/02 10:21:12;;;;;;;0.63;0.20;;;;;;;28.21;37.13;94574.09;5053006;28;20244;-63
2022/07/02 10:23:57;;;;;;;0.20;0.20;;;;;;;27.74;37.95;94564.69;5047641;28;20204;-64
2022/07/02 10:26:41;;;;;;;0.20;0.20;;;;;;;27.86;38.65;94569.91;5052645;28;20591;-64
2022/07/02 10:29:26;;;;;;;0.20;0.20;;;;;;;28.00;38.58;94566.53;5043627;28;20232;-64
2022/07/02 10:32:29;;;;;;;0.90;0.30;;;;;;;27.41;39.08;94568.38;5052512;28;20627;-65
2022/07/02 10:35:16;;;;;;;0.20;0.20;;;;;;;30.19;35.84;94561.22;5050039;28;20197;-66
2022/07/02 10:38:00;;;;;;;3.30;0.40;;;;;;;29.68;35.35;94560.06;5049249;28;20674;-66
2022/07/02 10:40:49;;;;;;;1.40;0.28;;;;;;;28.19;36.64;94548.13;5049488;28;20672;-66
2022/07/02 10:43:35;;;;;;;1.85;0.30;;;;;;;29.74;35.89;94551.47;5047996;28;20689;-67
2022/07/02 10:46:19;;;;;;;0.90;0.45;;;;;;;29.75;35.83;94552.88;5050013;28;20383;-67
2022/07/02 10:49:06;;;;;;;1.15;0.30;;;;;;;30.46;35.13;94551.28;5051032;28;20263;-67
2022/07/02 10:51:55;;;;;;;1.13;0.40;;;;;;;31.30;34.24;94541.56;5045993;28;20308;-67
2022/07/02 10:54:43;;;;;;;0.38;0.38;;;;;;;30.91;34.11;94537.81;5051175;28;20213;-67
2022/07/02 10:57:27;;;;;;;1.27;0.55;;;;;;;30.93;34.97;94546.47;5045905;28;20225;-66
2022/07/02 11:00:15;;;;;;;1.00;0.30;;;;;;;30.89;34.55;94528.38;5047457;28;20206;-67
2022/07/02 11:03:11;;;;;;;2.15;0.30;;;;;;;31.82;32.11;94525.00;5052117;28;20763;-67
2022/07/02 11:06:04;;;;;;;1.25;0.63;;;;;;;30.47;33.92;94517.31;5051890;28;20218;-67
2022/07/02 11:08:50;;;;;;;2.05;0.50;;;;;;;31.33;32.12;94519.88;5049532;28;20565;-67
2022/07/02 11:11:35;;;;;;;0.95;0.60;;;;;;;32.97;31.10;94521.19;5050039;28;20220;-67
2022/07/02 11:14:19;;;;;;;1.27;0.73;;;;;;;31.46;32.01;94517.00;5052284;28;20197;-67
2022/07/02 11:17:04;;;;;;;2.30;0.50;;;;;;;32.70;30.97;94511.88;5050628;28;20285;-68
2022/07/02 11:19:54;;;;;;;1.23;0.52;;;;;;;33.23;28.79;94509.50;5052321;28;20217;-68
2022/07/02 11:22:38;;;;;;;1.98;0.40;;;;;;;31.15;31.49;94510.41;5047201;28;20230;-68
2022/07/02 11:25:23;;;;;;;0.65;0.47;;;;;;;32.67;29.92;94508.25;5051832;28;20221;-68
2022/07/02 11:28:07;;;;;;;1.77;0.28;;;;;;;32.11;30.06;94503.25;5049108;28;20306;-68
2022/07/02 11:30:57;;;;;;;8.40;0.70;;;;;;;34.26;29.27;94508.03;5047460;28;20205;-68
2022/07/02 11:33:44;;;;;;;1.77;0.40;;;;;;;33.66;30.07;94504.13;5046916;28;20210;-68
2022/07/02 11:36:28;;;;;;;1.75;0.75;;;;;;;32.02;29.70;94501.81;5046686;28;20205;-68
2022/07/02 11:39:14;;;;;;;0.93;0.30;;;;;;;32.51;29.44;94487.97;5051704;28;20287;-68
2022/07/02 11:41:58;;;;;;;2.47;0.40;;;;;;;33.29;27.94;94495.66;5047162;28;20321;-69
2022/07/02 11:44:42;;;;;;;0.30;0.30;;;;;;;33.80;27.27;94488.78;5049333;28;20217;-68
2022/07/02 11:47:25;;;;;;;1.05;0.50;;;;;;;34.87;26.50;94497.19;5044760;28;20200;-69
2022/07/02 11:50:10;;;;;;;3.50;0.80;;;;;;;34.44;27.19;94484.59;5050725;28;20771;-69
2022/07/02 11:52:54;;;;;;;1.40;0.40;;;;;;;33.58;28.08;94483.84;5046422;28;20202;-69
2022/07/02 11:55:38;;;;;;;0.57;0.40;;;;;;;33.81;26.57;94490.25;5050216;28;20202;-69
2022/07/02 11:58:22;;;;;;;1.00;0.38;;;;;;;34.30;26.71;94491.28;5046301;28;20205;-68
2022/07/02 12:01:20;;;;;;;1.50;0.65;;;;;;;35.71;24.75;94504.88;5047147;28;20295;-69
2022/07/02 12:04:09;;;;;;;1.27;0.60;;;;;;;34.03;26.84;94484.94;5048516;28;20221;-69
2022/07/02 12:06:54;;;;;;;0.45;0.40;;;;;;;35.77;24.61;94490.91;5049380;28;20301;-69
2022/07/02 12:09:39;;;;;;;3.10;0.50;;;;;;;36.01;24.75;94486.88;5048894;28;20201;-71
2022/07/02 12:12:23;;;;;;;1.35;0.47;;;;;;;35.42;24.76;94487.06;5046135;28;20683;-71
2022/07/02 12:15:08;;;;;;;2.50;0.50;;;;;;;34.83;26.22;94468.13;5048978;28;20240;-71
2022/07/02 12:17:52;;;;;;;2.67;1.08;;;;;;;34.41;27.84;94465.69;5044531;28;20607;-70
2022/07/02 12:20:36;;;;;;;1.10;1.00;;;;;;;35.76;25.26;94471.25;5051290;28;20273;-71
2022/07/02 12:23:21;;;;;;;2.47;0.60;;;;;;;36.51;24.58;94461.19;5043024;28;20197;-70
2022/07/02 12:26:05;;;;;;;2.22;0.80;;;;;;;35.73;24.94;94466.94;5050517;28;20303;-71
2022/07/02 12:32:09;;;;;;;2.05;0.60;;;;;;;35.39;24.99;94459.41;5046420;28;20235;-70
2022/07/02 12:34:55;;;;;;;1.67;0.57;;;;;;;34.93;24.42;94452.00;5049704;28;20204;-70
2022/07/02 12:37:45;;;;;;;0.57;0.32;;;;;;;35.92;23.86;94462.94;5051079;28;20193;-70
2022/07/02 12:40:30;;;;;;;6.55;0.90;;;;;;;34.86;24.27;94449.19;5045728;28;20221;-70
2022/07/02 12:43:21;;;;;;;0.95;0.50;;;;;;;35.91;24.23;94452.03;5046168;28;20259;-70
2022/07/02 12:46:06;;;;;;;0.40;0.40;;;;;;;37.07;23.20;94441.81;5042631;28;23210;-70
2022/07/02 12:48:51;;;;;;;2.33;0.32;;;;;;;38.09;22.44;94452.63;5048864;28;20213;-70
2022/07/02 12:51:35;;;;;;;1.75;0.93;;;;;;;36.07;23.76;94440.09;5045860;28;20198;-71
2022/07/02 12:54:18;;;;;;;1.05;0.60;;;;;;;37.63;22.08;94439.84;5050375;28;20205;-71
2022/07/02 12:57:15;;;;;;;0.68;0.47;;;;;;;35.87;24.27;94434.59;5047034;28;20644;-71
2022/07/02 13:00:00;;;;;;;0.80;0.63;;;;;;;35.46;25.23;94423.56;5047182;28;20260;-71